createdAt,value
2023-01-19T00:00:21.117Z,65.75
2023-01-19T00:05:24.029Z,66.41
2023-01-19T00:10:27.209Z,65.75
2023-01-19T00:15:30.339Z,65.62
2023-01-19T00:20:33.502Z,65.76
2023-01-19T00:25:37.379Z,65.63
2023-01-19T00:30:41.196Z,65.44
2023-01-19T00:35:44.593Z,65.35
2023-01-19T00:40:48.547Z,64.94
2023-01-19T00:45:51.848Z,64.93
2023-01-19T00:50:54.848Z,65.56
2023-01-19T00:55:58.593Z,65.15
2023-01-19T01:01:01.861Z,64.82
2023-01-19T01:06:06.079Z,65.01
2023-01-19T01:11:10.645Z,64.29
2023-01-19T01:16:16.098Z,64.06
2023-01-19T01:21:19.273Z,63.70
2023-01-19T01:26:22.694Z,63.40
2023-01-19T01:31:25.637Z,64.28
2023-01-19T01:36:29.554Z,63.90
2023-01-19T01:41:32.973Z,63.99
2023-01-19T01:46:36.560Z,63.43
2023-01-19T01:51:44.170Z,63.74
2023-01-19T01:56:50.139Z,63.48
2023-01-19T02:01:57.407Z,63.47
2023-01-19T02:07:01.385Z,63.34
2023-01-19T02:12:05.363Z,63.28
2023-01-19T02:17:08.782Z,63.44
2023-01-19T02:22:39.951Z,63.44
2023-01-19T02:27:43.540Z,63.29
2023-01-19T02:32:46.937Z,63.24
2023-01-19T02:37:53.296Z,63.15
2023-01-19T02:43:00.045Z,62.96
2023-01-19T02:48:03.986Z,62.51
2023-01-19T02:53:10.736Z,62.29
2023-01-19T02:58:27.679Z,62.19
2023-01-19T03:03:40.515Z,62.08
2023-01-19T03:08:59.202Z,61.84
2023-01-19T03:14:12.465Z,62.08
2023-01-19T03:19:26.606Z,62.26
2023-01-19T03:24:34.491Z,61.89
2023-01-19T03:29:42.447Z,61.61
2023-01-19T03:34:50.077Z,61.80
2023-01-19T03:39:53.459Z,61.88
2023-01-19T03:45:00.281Z,61.66
2023-01-19T03:50:11.254Z,61.23
2023-01-19T03:55:14.482Z,61.32
2023-01-19T04:00:18.291Z,61.01
2023-01-19T04:05:22.112Z,61.13
2023-01-19T04:10:25.739Z,60.78
2023-01-19T04:15:30.773Z,60.75
2023-01-19T04:20:34.448Z,60.67
2023-01-19T04:25:38.947Z,61.00
2023-01-19T04:30:42.168Z,60.50
2023-01-19T04:35:45.910Z,61.19
2023-01-19T04:40:50.230Z,60.74
2023-01-19T04:45:53.345Z,60.62
2023-01-19T04:50:56.529Z,60.08
2023-01-19T04:55:59.850Z,60.15
2023-01-19T05:01:07.084Z,60.54
2023-01-19T05:06:10.340Z,60.13
2023-01-19T05:11:13.729Z,59.58
2023-01-19T05:16:18.555Z,59.31
2023-01-19T05:21:21.667Z,59.84
2023-01-19T05:26:24.775Z,59.36
2023-01-19T05:31:27.915Z,60.13
2023-01-19T05:36:32.011Z,59.93
2023-01-19T05:41:36.272Z,59.59
2023-01-19T05:46:40.594Z,59.39
2023-01-19T05:51:44.033Z,59.18
2023-01-19T05:56:47.310Z,59.15
2023-01-19T06:01:54.584Z,59.25
2023-01-19T06:06:57.977Z,59.06
2023-01-19T06:12:01.194Z,58.52
2023-01-19T06:17:05.048Z,58.46
2023-01-19T06:22:09.178Z,57.83
2023-01-19T06:27:12.605Z,57.09
2023-01-19T06:32:16.005Z,56.77
2023-01-19T06:37:19.167Z,57.52
2023-01-19T06:42:22.437Z,57.99
2023-01-19T06:47:26.755Z,57.62
2023-01-19T06:52:29.901Z,58.21
2023-01-19T06:57:32.892Z,58.70
2023-01-19T07:02:37.182Z,58.21
2023-01-19T07:07:40.656Z,58.20
2023-01-19T07:12:43.631Z,58.55
2023-01-19T07:17:46.977Z,58.22
2023-01-19T07:22:56.449Z,58.18
2023-01-19T07:28:01.149Z,57.55
2023-01-19T07:33:04.482Z,57.44
2023-01-19T07:38:07.985Z,57.43
2023-01-19T07:43:11.187Z,57.49
2023-01-19T07:48:14.307Z,57.99
2023-01-19T07:53:18.105Z,57.90
2023-01-19T07:58:21.720Z,57.67
2023-01-19T08:03:24.855Z,57.28
2023-01-19T08:08:29.484Z,57.65
2023-01-19T08:13:32.667Z,57.64
2023-01-19T08:18:36.508Z,57.46
2023-01-19T08:23:39.873Z,57.89
2023-01-19T08:28:43.280Z,57.42
2023-01-19T08:33:46.261Z,57.49
2023-01-19T08:38:49.579Z,57.15
2023-01-19T08:43:54.663Z,57.12
2023-01-19T08:48:58.655Z,56.96
2023-01-19T08:54:01.824Z,56.83
2023-01-19T08:59:09.762Z,56.84
2023-01-19T09:04:13.295Z,56.40
2023-01-19T09:09:16.329Z,57.22
2023-01-19T09:14:19.937Z,56.54
2023-01-19T09:19:23.520Z,56.52
2023-01-19T09:24:26.986Z,56.25
2023-01-19T09:29:30.474Z,56.06
2023-01-19T09:34:33.346Z,56.48
2023-01-19T09:39:37.726Z,56.04
2023-01-19T09:44:43.907Z,55.34
2023-01-19T09:49:55.664Z,55.50
2023-01-19T09:54:59.236Z,55.56
2023-01-19T10:00:03.406Z,55.04
2023-01-19T10:05:34.667Z,55.00
2023-01-19T10:10:41.780Z,55.04
2023-01-19T10:15:59.718Z,54.54
2023-01-19T10:21:14.829Z,54.44
2023-01-19T10:26:30.112Z,54.45
2023-01-19T10:31:36.346Z,54.79
2023-01-19T10:36:41.170Z,54.22
2023-01-19T10:41:53.731Z,54.00
2023-01-19T10:46:59.951Z,53.64
2023-01-19T10:52:06.151Z,54.08
2023-01-19T10:57:11.950Z,53.52
2023-01-19T11:02:26.930Z,53.30
2023-01-19T11:07:32.780Z,52.33
2023-01-19T11:12:43.488Z,52.03
2023-01-19T11:17:47.904Z,51.65
2023-01-19T11:23:29.040Z,51.65
2023-01-19T11:28:44.990Z,51.34
2023-01-19T11:33:50.952Z,51.41
2023-01-19T11:38:56.699Z,51.36
2023-01-19T11:44:35.366Z,51.23
2023-01-19T11:50:13.775Z,51.08
2023-01-19T11:55:46.664Z,50.75
2023-01-19T12:01:19.868Z,50.48
2023-01-19T12:06:32.408Z,49.81
2023-01-19T12:12:04.847Z,50.10
2023-01-19T12:17:16.662Z,49.71
2023-01-19T12:22:20.893Z,50.05
2023-01-19T12:27:46.561Z,49.82
2023-01-19T12:32:49.912Z,49.40
2023-01-19T12:37:53.449Z,48.94
2023-01-19T12:42:59.118Z,48.53
2023-01-19T12:48:05.181Z,48.00
2023-01-19T12:53:19.157Z,48.16
2023-01-19T12:58:25.397Z,47.43
2023-01-19T13:03:28.444Z,47.15
2023-01-19T13:08:53.082Z,47.32
2023-01-19T13:13:58.951Z,46.76
2023-01-19T13:19:06.530Z,46.85
2023-01-19T13:24:17.769Z,46.63
2023-01-19T13:29:32.748Z,46.64
2023-01-19T13:34:47.166Z,46.42
2023-01-19T13:39:54.048Z,46.12
2023-01-19T13:45:01.311Z,45.96
2023-01-19T13:50:06.647Z,46.10
2023-01-19T13:55:14.424Z,45.65
2023-01-19T14:00:26.065Z,45.65
2023-01-19T14:05:30.658Z,45.47
2023-01-19T14:10:35.927Z,45.20
2023-01-19T14:15:39.568Z,44.97
2023-01-19T14:21:03.279Z,45.71
2023-01-19T14:26:45.607Z,45.88
2023-01-19T14:32:05.264Z,45.66
2023-01-19T14:37:18.469Z,46.09
2023-01-19T14:42:32.449Z,45.93
2023-01-19T14:47:39.496Z,46.53
2023-01-19T14:52:44.394Z,47.71
2023-01-19T14:57:48.225Z,50.08
2023-01-19T15:02:51.570Z,51.16
2023-01-19T15:07:54.557Z,51.51
2023-01-19T15:12:57.874Z,52.12
2023-01-19T15:18:04.747Z,53.49
2023-01-19T15:23:10.989Z,54.44
2023-01-19T15:28:19.352Z,55.02
2023-01-19T15:33:27.138Z,55.95
2023-01-19T15:38:30.319Z,56.55
2023-01-19T15:43:34.044Z,57.37
2023-01-19T15:48:37.427Z,57.89
2023-01-19T15:53:41.106Z,57.46
2023-01-19T15:58:46.624Z,57.83
2023-01-19T16:03:50.695Z,59.08
2023-01-19T16:08:55.316Z,59.46
2023-01-19T16:13:58.667Z,59.88
2023-01-19T16:19:02.120Z,60.53
2023-01-19T16:24:05.344Z,60.85
2023-01-19T16:29:09.770Z,60.96
2023-01-19T16:34:13.689Z,61.57
2023-01-19T16:39:17.294Z,61.69
2023-01-19T16:44:20.721Z,61.49
2023-01-19T16:49:28.271Z,61.43
2023-01-19T16:54:31.773Z,60.95
2023-01-19T16:59:35.003Z,61.13
2023-01-19T17:04:38.020Z,60.17
2023-01-19T17:09:41.110Z,59.68
2023-01-19T17:14:44.399Z,58.08
2023-01-19T17:19:47.684Z,57.78
2023-01-19T17:24:51.882Z,56.08
2023-01-19T17:29:55.160Z,55.16
2023-01-19T17:35:01.725Z,54.34
2023-01-19T17:40:10.352Z,53.45
2023-01-19T17:45:13.888Z,53.43
2023-01-19T17:50:17.909Z,52.77
2023-01-19T17:55:21.340Z,52.27
2023-01-19T18:00:24.838Z,52.76
2023-01-19T18:05:28.012Z,52.28
2023-01-19T18:10:32.377Z,53.38
2023-01-19T18:15:38.642Z,52.35
2023-01-19T18:20:41.803Z,51.80
2023-01-19T18:25:45.030Z,51.10
2023-01-19T18:30:48.083Z,52.07
2023-01-19T18:35:51.786Z,51.14
2023-01-19T18:41:02.147Z,50.68
2023-01-19T18:46:05.710Z,50.65
2023-01-19T18:51:14.178Z,49.79
2023-01-19T18:56:17.583Z,49.75
2023-01-19T19:01:26.788Z,49.64
2023-01-19T19:06:30.044Z,49.55
2023-01-19T19:11:35.475Z,49.25
2023-01-19T19:16:39.551Z,49.58
2023-01-19T19:21:43.523Z,49.33
2023-01-19T19:26:46.762Z,49.32
2023-01-19T19:31:50.207Z,49.34
2023-01-19T19:36:54.743Z,49.09
2023-01-19T19:41:58.053Z,49.06
2023-01-19T19:47:01.259Z,49.01
2023-01-19T19:52:04.956Z,48.84
2023-01-19T19:57:08.170Z,48.92
2023-01-19T20:02:12.170Z,49.56
2023-01-19T20:07:17.810Z,48.94
2023-01-19T20:12:21.416Z,49.16
2023-01-19T20:17:24.911Z,49.11
2023-01-19T20:22:28.246Z,49.24
2023-01-19T20:27:31.172Z,50.06
2023-01-19T20:32:34.498Z,49.76
2023-01-19T20:37:38.097Z,49.52
2023-01-19T20:42:42.708Z,49.83
2023-01-19T20:47:45.973Z,49.79
2023-01-19T20:52:48.950Z,50.21
2023-01-19T20:57:52.395Z,49.68
2023-01-19T21:02:56.642Z,49.89
2023-01-19T21:07:59.788Z,49.76
2023-01-19T21:13:03.189Z,49.65
2023-01-19T21:18:07.426Z,50.31
2023-01-19T21:23:11.082Z,49.91
2023-01-19T21:28:14.583Z,49.93
2023-01-19T21:33:18.383Z,50.04
2023-01-19T21:38:22.703Z,49.80
2023-01-19T21:43:26.127Z,49.95
2023-01-19T21:48:31.454Z,49.80
2023-01-19T21:53:34.855Z,50.16
2023-01-19T21:58:38.534Z,50.15
2023-01-19T22:03:42.857Z,50.19
2023-01-19T22:08:46.999Z,50.21
2023-01-19T22:13:50.312Z,50.29
2023-01-19T22:18:54.693Z,50.54
2023-01-19T22:23:59.840Z,50.47
2023-01-19T22:29:04.272Z,50.06
2023-01-19T22:34:07.440Z,49.90
2023-01-19T22:39:12.245Z,49.94
2023-01-19T22:44:20.679Z,49.83
2023-01-19T22:49:23.767Z,49.67
2023-01-19T22:54:26.925Z,49.50
2023-01-19T22:59:30.245Z,49.51
2023-01-19T23:04:33.894Z,49.28
2023-01-19T23:09:38.184Z,49.34
2023-01-19T23:14:41.464Z,49.37
2023-01-19T23:19:44.491Z,49.89
2023-01-19T23:24:47.672Z,49.47
2023-01-19T23:29:50.791Z,50.11
2023-01-19T23:34:54.220Z,50.12
2023-01-19T23:39:57.291Z,49.78
2023-01-19T23:45:00.513Z,49.83
2023-01-19T23:50:05.727Z,49.56
2023-01-19T23:55:09.464Z,49.58
